sensor_id;sensor_type;location;lat;lon;timestamp;pressure;altitude;pressure_sealevel;temperature;humidity
26376;BME280;30544;42.196;24.336;2023-04-03T00:00:22;98475.03;;;13.38;nan
26376;BME280;30544;42.196;24.336;2023-04-03T00:02:49;98463.41;;;13.10;nan
26376;BME280;30544;42.196;24.336;2023-04-03T00:05:15;98480.09;;;13.31;nan
26376;BME280;30544;42.196;24.336;2023-04-03T00:07:42;98474.25;;;13.27;nan
26376;BME280;30544;42.196;24.336;2023-04-03T00:10:11;98469.22;;;13.34;nan
26376;BME280;30544;42.196;24.336;2023-04-03T00:12:39;98457.84;;;13.20;nan
26376;BME280;30544;42.196;24.336;2023-04-03T00:15:06;98460.63;;;13.05;nan
26376;BME280;30544;42.196;24.336;2023-04-03T00:17:33;98459.00;;;12.89;nan
26376;BME280;30544;42.196;24.336;2023-04-03T00:20:00;98464.56;;;12.94;nan
26376;BME280;30544;42.196;24.336;2023-04-03T00:22:27;98459.28;;;12.98;nan
26376;BME280;30544;42.196;24.336;2023-04-03T00:24:54;98451.19;;;12.96;nan
26376;BME280;30544;42.196;24.336;2023-04-03T00:27:22;98455.31;;;13.09;nan
26376;BME280;30544;42.196;24.336;2023-04-03T00:29:49;98457.06;;;12.84;nan
26376;BME280;30544;42.196;24.336;2023-04-03T00:32:15;98456.22;;;12.74;nan
26376;BME280;30544;42.196;24.336;2023-04-03T00:34:43;98456.25;;;12.79;nan
26376;BME280;30544;42.196;24.336;2023-04-03T00:37:10;98462.59;;;12.89;nan
26376;BME280;30544;42.196;24.336;2023-04-03T00:39:37;98462.06;;;12.82;nan
26376;BME280;30544;42.196;24.336;2023-04-03T00:42:04;98462.34;;;12.76;nan
26376;BME280;30544;42.196;24.336;2023-04-03T00:47:37;98457.59;;;12.91;nan
26376;BME280;30544;42.196;24.336;2023-04-03T00:50:06;98468.22;;;12.79;nan
26376;BME280;30544;42.196;24.336;2023-04-03T00:52:33;98472.09;;;12.83;nan
26376;BME280;30544;42.196;24.336;2023-04-03T00:55:02;98471.53;;;12.71;nan
26376;BME280;30544;42.196;24.336;2023-04-03T00:57:31;98467.94;;;12.60;nan
26376;BME280;30544;42.196;24.336;2023-04-03T01:00:03;98469.59;;;12.67;nan
26376;BME280;30544;42.196;24.336;2023-04-03T01:02:31;98470.44;;;12.67;nan
26376;BME280;30544;42.196;24.336;2023-04-03T01:04:59;98471.00;;;12.54;nan
26376;BME280;30544;42.196;24.336;2023-04-03T01:07:29;98467.66;;;12.52;nan
26376;BME280;30544;42.196;24.336;2023-04-03T01:09:59;98463.75;;;12.43;nan
26376;BME280;30544;42.196;24.336;2023-04-03T01:12:29;98469.88;;;12.40;nan
26376;BME280;30544;42.196;24.336;2023-04-03T01:14:58;98476.00;;;12.37;nan
26376;BME280;30544;42.196;24.336;2023-04-03T01:17:31;98470.69;;;12.40;nan
26376;BME280;30544;42.196;24.336;2023-04-03T01:20:31;98468.50;;;12.32;nan
26376;BME280;30544;42.196;24.336;2023-04-03T01:23:10;98465.97;;;12.20;nan
26376;BME280;30544;42.196;24.336;2023-04-03T01:25:40;98468.50;;;12.32;nan
26376;BME280;30544;42.196;24.336;2023-04-03T01:28:10;98457.56;;;11.90;nan
26376;BME280;30544;42.196;24.336;2023-04-03T01:30:43;98467.63;;;12.01;nan
26376;BME280;30544;42.196;24.336;2023-04-03T01:33:14;98467.09;;;12.14;nan
26376;BME280;30544;42.196;24.336;2023-04-03T01:35:41;98464.56;;;12.08;nan
26376;BME280;30544;42.196;24.336;2023-04-03T01:38:08;98467.91;;;12.20;nan
26376;BME280;30544;42.196;24.336;2023-04-03T01:40:35;98462.59;;;12.08;nan
26376;BME280;30544;42.196;24.336;2023-04-03T01:43:02;98464.84;;;12.06;nan
26376;BME280;30544;42.196;24.336;2023-04-03T01:45:29;98471.75;;;11.88;nan
26376;BME280;30544;42.196;24.336;2023-04-03T01:47:56;98461.09;;;11.70;nan
26376;BME280;30544;42.196;24.336;2023-04-03T01:50:24;98464.25;;;11.84;nan
26376;BME280;30544;42.196;24.336;2023-04-03T01:52:51;98473.72;;;12.03;nan
26376;BME280;30544;42.196;24.336;2023-04-03T01:55:18;98467.91;;;12.25;nan
26376;BME280;30544;42.196;24.336;2023-04-03T01:57:45;98470.69;;;12.20;nan
26376;BME280;30544;42.196;24.336;2023-04-03T02:00:13;98467.66;;;12.31;nan
26376;BME280;30544;42.196;24.336;2023-04-03T02:02:40;98470.97;;;12.39;nan
26376;BME280;30544;42.196;24.336;2023-04-03T02:05:07;98465.16;;;12.45;nan
26376;BME280;30544;42.196;24.336;2023-04-03T02:07:36;98466.25;;;12.34;nan
26376;BME280;30544;42.196;24.336;2023-04-03T02:10:03;98465.72;;;12.32;nan
26376;BME280;30544;42.196;24.336;2023-04-03T02:12:29;98462.38;;;12.35;nan
26376;BME280;30544;42.196;24.336;2023-04-03T02:14:56;98468.47;;;12.22;nan
26376;BME280;30544;42.196;24.336;2023-04-03T02:17:23;98466.25;;;12.24;nan
26376;BME280;30544;42.196;24.336;2023-04-03T02:19:50;98465.63;;;11.91;nan
26376;BME280;30544;42.196;24.336;2023-04-03T02:22:16;98464.56;;;12.02;nan
26376;BME280;30544;42.196;24.336;2023-04-03T02:24:46;98462.91;;;12.12;nan
26376;BME280;30544;42.196;24.336;2023-04-03T02:27:12;98470.69;;;12.25;nan
26376;BME280;30544;42.196;24.336;2023-04-03T02:29:40;98456.81;;;12.15;nan
26376;BME280;30544;42.196;24.336;2023-04-03T02:32:06;98460.97;;;12.38;nan
26376;BME280;30544;42.196;24.336;2023-04-03T02:34:33;98462.09;;;12.26;nan
26376;BME280;30544;42.196;24.336;2023-04-03T02:37:00;98458.19;;;12.32;nan
26376;BME280;30544;42.196;24.336;2023-04-03T02:39:27;98444.88;;;12.29;nan
26376;BME280;30544;42.196;24.336;2023-04-03T02:41:55;98450.41;;;12.34;nan
26376;BME280;30544;42.196;24.336;2023-04-03T02:44:22;98457.09;;;12.39;nan
26376;BME280;30544;42.196;24.336;2023-04-03T02:46:49;98453.47;;;12.28;nan
26376;BME280;30544;42.196;24.336;2023-04-03T02:49:16;98455.13;;;12.24;nan
26376;BME280;30544;42.196;24.336;2023-04-03T02:51:43;98455.16;;;12.29;nan
26376;BME280;30544;42.196;24.336;2023-04-03T02:54:10;98463.75;;;12.43;nan
26376;BME280;30544;42.196;24.336;2023-04-03T02:56:37;98466.00;;;12.51;nan
26376;BME280;30544;42.196;24.336;2023-04-03T02:59:05;98454.31;;;12.39;nan
26376;BME280;30544;42.196;24.336;2023-04-03T03:01:32;98447.09;;;12.32;nan
26376;BME280;30544;42.196;24.336;2023-04-03T03:03:59;98441.50;;;12.17;nan
26376;BME280;30544;42.196;24.336;2023-04-03T03:06:26;98437.63;;;12.23;nan
26376;BME280;30544;42.196;24.336;2023-04-03T03:08:53;98428.69;;;12.06;nan
26376;BME280;30544;42.196;24.336;2023-04-03T03:11:20;98436.47;;;12.09;nan
26376;BME280;30544;42.196;24.336;2023-04-03T03:13:47;98436.22;;;12.00;nan
26376;BME280;30544;42.196;24.336;2023-04-03T03:16:15;98432.25;;;11.76;nan
26376;BME280;30544;42.196;24.336;2023-04-03T03:18:42;98434.44;;;11.74;nan
26376;BME280;30544;42.196;24.336;2023-04-03T03:21:09;98423.34;;;11.69;nan
26376;BME280;30544;42.196;24.336;2023-04-03T03:23:36;98422.75;;;11.57;nan
26376;BME280;30544;42.196;24.336;2023-04-03T03:26:05;98436.94;;;11.75;nan
26376;BME280;30544;42.196;24.336;2023-04-03T03:28:32;98434.50;;;11.84;nan
26376;BME280;30544;42.196;24.336;2023-04-03T03:31:00;98430.94;;;11.94;nan
26376;BME280;30544;42.196;24.336;2023-04-03T03:33:28;98430.66;;;11.95;nan
26376;BME280;30544;42.196;24.336;2023-04-03T03:35:56;98437.31;;;11.94;nan
26376;BME280;30544;42.196;24.336;2023-04-03T03:38:23;98433.41;;;11.90;nan
26376;BME280;30544;42.196;24.336;2023-04-03T03:40:51;98438.16;;;11.95;nan
26376;BME280;30544;42.196;24.336;2023-04-03T03:43:18;98427.00;;;11.85;nan
26376;BME280;30544;42.196;24.336;2023-04-03T03:45:49;98436.09;;;11.60;nan
26376;BME280;30544;42.196;24.336;2023-04-03T03:48:16;98435.81;;;11.61;nan
26376;BME280;30544;42.196;24.336;2023-04-03T03:50:45;98439.97;;;11.59;nan
26376;BME280;30544;42.196;24.336;2023-04-03T03:53:11;98440.53;;;11.61;nan
26376;BME280;30544;42.196;24.336;2023-04-03T03:55:38;98449.16;;;11.59;nan
26376;BME280;30544;42.196;24.336;2023-04-03T03:58:05;98446.63;;;11.53;nan
26376;BME280;30544;42.196;24.336;2023-04-03T04:00:32;98452.94;;;11.33;nan
26376;BME280;30544;42.196;24.336;2023-04-03T04:02:59;98456.19;;;11.14;nan
26376;BME280;30544;42.196;24.336;2023-04-03T04:05:26;98454.44;;;11.03;nan
26376;BME280;30544;42.196;24.336;2023-04-03T04:07:55;98450.63;;;11.14;nan
26376;BME280;30544;42.196;24.336;2023-04-03T04:10:21;98458.47;;;11.28;nan
26376;BME280;30544;42.196;24.336;2023-04-03T04:12:48;98468.53;;;11.49;nan
26376;BME280;30544;42.196;24.336;2023-04-03T04:15:16;98464.72;;;11.60;nan
26376;BME280;30544;42.196;24.336;2023-04-03T04:17:43;98474.72;;;11.61;nan
26376;BME280;30544;42.196;24.336;2023-04-03T04:20:11;98484.44;;;11.64;nan
26376;BME280;30544;42.196;24.336;2023-04-03T04:22:38;98488.88;;;11.70;nan
26376;BME280;30544;42.196;24.336;2023-04-03T04:25:07;98486.38;;;11.73;nan
26376;BME280;30544;42.196;24.336;2023-04-03T04:27:34;98493.13;;;11.83;nan
26376;BME280;30544;42.196;24.336;2023-04-03T04:30:01;98500.81;;;11.60;nan
26376;BME280;30544;42.196;24.336;2023-04-03T04:32:30;98493.94;;;11.78;nan
26376;BME280;30544;42.196;24.336;2023-04-03T04:34:57;98494.25;;;11.87;nan
26376;BME280;30544;42.196;24.336;2023-04-03T04:37:24;98503.38;;;11.77;nan
26376;BME280;30544;42.196;24.336;2023-04-03T04:39:50;98505.97;;;11.99;nan
26376;BME280;30544;42.196;24.336;2023-04-03T04:42:19;98502.06;;;12.05;nan
26376;BME280;30544;42.196;24.336;2023-04-03T04:44:45;98504.84;;;12.00;nan
26376;BME280;30544;42.196;24.336;2023-04-03T04:47:12;98502.31;;;11.83;nan
26376;BME280;30544;42.196;24.336;2023-04-03T04:49:39;98491.66;;;11.75;nan
26376;BME280;30544;42.196;24.336;2023-04-03T04:52:06;98485.81;;;11.66;nan
26376;BME280;30544;42.196;24.336;2023-04-03T04:54:32;98489.72;;;11.75;nan
26376;BME280;30544;42.196;24.336;2023-04-03T04:56:59;98490.91;;;11.90;nan
26376;BME280;30544;42.196;24.336;2023-04-03T04:59:27;98491.31;;;11.56;nan
26376;BME280;30544;42.196;24.336;2023-04-03T05:01:54;98493.06;;;11.67;nan
26376;BME280;30544;42.196;24.336;2023-04-03T05:04:21;98486.06;;;11.55;nan
26376;BME280;30544;42.196;24.336;2023-04-03T05:06:48;98494.72;;;11.73;nan
26376;BME280;30544;42.196;24.336;2023-04-03T05:09:15;98490.69;;;12.07;nan
26376;BME280;30544;42.196;24.336;2023-04-03T05:11:42;98494.84;;;11.99;nan
26376;BME280;30544;42.196;24.336;2023-04-03T05:14:08;98512.13;;;12.16;nan
26376;BME280;30544;42.196;24.336;2023-04-03T05:16:37;98520.97;;;11.93;nan
26376;BME280;30544;42.196;24.336;2023-04-03T05:19:03;98518.69;;;11.85;nan
26376;BME280;30544;42.196;24.336;2023-04-03T05:21:30;98522.84;;;11.82;nan
26376;BME280;30544;42.196;24.336;2023-04-03T05:23:58;98516.81;;;12.05;nan
26376;BME280;30544;42.196;24.336;2023-04-03T05:26:28;98514.06;;;12.16;nan
26376;BME280;30544;42.196;24.336;2023-04-03T05:28:55;98532.69;;;12.20;nan
26376;BME280;30544;42.196;24.336;2023-04-03T05:31:22;98520.75;;;12.35;nan
26376;BME280;30544;42.196;24.336;2023-04-03T05:33:50;98519.09;;;12.29;nan
26376;BME280;30544;42.196;24.336;2023-04-03T05:36:17;98523.81;;;12.33;nan
26376;BME280;30544;42.196;24.336;2023-04-03T05:38:44;98511.53;;;12.04;nan
26376;BME280;30544;42.196;24.336;2023-04-03T05:41:11;98504.78;;;11.80;nan
26376;BME280;30544;42.196;24.336;2023-04-03T05:43:38;98513.19;;;11.95;nan
26376;BME280;30544;42.196;24.336;2023-04-03T05:46:09;98505.84;;;11.73;nan
26376;BME280;30544;42.196;24.336;2023-04-03T05:48:36;98506.47;;;11.81;nan
26376;BME280;30544;42.196;24.336;2023-04-03T05:51:06;98509.28;;;12.01;nan
26376;BME280;30544;42.196;24.336;2023-04-03T05:53:35;98514.06;;;12.11;nan
26376;BME280;30544;42.196;24.336;2023-04-03T05:56:02;98520.09;;;11.87;nan
26376;BME280;30544;42.196;24.336;2023-04-03T05:58:29;98523.19;;;12.01;nan
26376;BME280;30544;42.196;24.336;2023-04-03T06:00:56;98535.50;;;12.30;nan
26376;BME280;30544;42.196;24.336;2023-04-03T06:03:23;98536.59;;;12.40;nan
26376;BME280;30544;42.196;24.336;2023-04-03T06:05:51;98517.72;;;12.62;nan
26376;BME280;30544;42.196;24.336;2023-04-03T06:08:19;98525.22;;;12.87;nan
26376;BME280;30544;42.196;24.336;2023-04-03T06:10:46;98523.53;;;13.16;nan
26376;BME280;30544;42.196;24.336;2023-04-03T06:13:14;98531.56;;;13.38;nan
26376;BME280;30544;42.196;24.336;2023-04-03T06:15:40;98535.44;;;13.52;nan
26376;BME280;30544;42.196;24.336;2023-04-03T06:18:07;98536.81;;;13.55;nan
26376;BME280;30544;42.196;24.336;2023-04-03T06:20:35;98545.09;;;13.80;nan
26376;BME280;30544;42.196;24.336;2023-04-03T06:23:02;98546.50;;;13.78;nan
26376;BME280;30544;42.196;24.336;2023-04-03T06:25:30;98539.19;;;13.97;nan
26376;BME280;30544;42.196;24.336;2023-04-03T06:27:57;98540.47;;;14.15;nan
26376;BME280;30544;42.196;24.336;2023-04-03T06:30:23;98531.75;;;14.27;nan
26376;BME280;30544;42.196;24.336;2023-04-03T06:32:50;98528.63;;;14.38;nan
26376;BME280;30544;42.196;24.336;2023-04-03T06:35:18;98529.50;;;14.34;nan
26376;BME280;30544;42.196;24.336;2023-04-03T06:37:46;98543.94;;;14.41;nan
26376;BME280;30544;42.196;24.336;2023-04-03T06:40:19;98538.63;;;14.50;nan
26376;BME280;30544;42.196;24.336;2023-04-03T06:42:48;98536.97;;;14.83;nan
26376;BME280;30544;42.196;24.336;2023-04-03T06:45:15;98537.44;;;14.95;nan
26376;BME280;30544;42.196;24.336;2023-04-03T06:47:42;98529.63;;;14.92;nan
26376;BME280;30544;42.196;24.336;2023-04-03T06:50:11;98527.97;;;14.91;nan
26376;BME280;30544;42.196;24.336;2023-04-03T06:52:40;98532.63;;;15.00;nan
26376;BME280;30544;42.196;24.336;2023-04-03T06:55:07;98527.53;;;14.79;nan
26376;BME280;30544;42.196;24.336;2023-04-03T06:57:35;98526.34;;;14.85;nan
26376;BME280;30544;42.196;24.336;2023-04-03T07:00:04;98529.59;;;14.97;nan
26376;BME280;30544;42.196;24.336;2023-04-03T07:02:32;98525.69;;;14.93;nan
26376;BME280;30544;42.196;24.336;2023-04-03T07:04:59;98527.16;;;15.19;nan
26376;BME280;30544;42.196;24.336;2023-04-03T07:07:26;98531.28;;;15.51;nan
26376;BME280;30544;42.196;24.336;2023-04-03T07:09:53;98536.25;;;15.59;nan
26376;BME280;30544;42.196;24.336;2023-04-03T07:12:20;98543.47;;;15.65;nan
26376;BME280;30544;42.196;24.336;2023-04-03T07:14:46;98544.44;;;15.74;nan
26376;BME280;30544;42.196;24.336;2023-04-03T07:17:15;98547.22;;;15.79;nan
26376;BME280;30544;42.196;24.336;2023-04-03T07:19:41;98538.06;;;15.92;nan
26376;BME280;30544;42.196;24.336;2023-04-03T07:22:08;98528.94;;;15.87;nan
26376;BME280;30544;42.196;24.336;2023-04-03T07:24:36;98524.72;;;16.08;nan
26376;BME280;30544;42.196;24.336;2023-04-03T07:27:03;98527.72;;;16.36;nan
26376;BME280;30544;42.196;24.336;2023-04-03T07:29:30;98516.13;;;16.42;nan
26376;BME280;30544;42.196;24.336;2023-04-03T07:31:57;98525.03;;;16.44;nan
26376;BME280;30544;42.196;24.336;2023-04-03T07:34:26;98518.78;;;16.34;nan
26376;BME280;30544;42.196;24.336;2023-04-03T07:36:53;98512.44;;;16.47;nan
26376;BME280;30544;42.196;24.336;2023-04-03T07:39:20;98515.06;;;16.38;nan
26376;BME280;30544;42.196;24.336;2023-04-03T07:41:47;98517.22;;;16.46;nan
26376;BME280;30544;42.196;24.336;2023-04-03T07:44:13;98516.50;;;16.54;nan
26376;BME280;30544;42.196;24.336;2023-04-03T07:46:40;98520.38;;;16.40;nan
26376;BME280;30544;42.196;24.336;2023-04-03T07:49:07;98506.66;;;16.57;nan
26376;BME280;30544;42.196;24.336;2023-04-03T07:51:36;98510.69;;;16.70;nan
26376;BME280;30544;42.196;24.336;2023-04-03T07:54:03;98511.19;;;16.91;nan
26376;BME280;30544;42.196;24.336;2023-04-03T07:56:30;98514.44;;;16.98;nan
26376;BME280;30544;42.196;24.336;2023-04-03T07:58:57;98513.91;;;16.96;nan
26376;BME280;30544;42.196;24.336;2023-04-03T08:01:24;98505.00;;;17.07;nan
26376;BME280;30544;42.196;24.336;2023-04-03T08:03:51;98516.38;;;17.30;nan
26376;BME280;30544;42.196;24.336;2023-04-03T08:06:18;98509.88;;;17.48;nan
26376;BME280;30544;42.196;24.336;2023-04-03T08:08:46;98505.94;;;17.49;nan
26376;BME280;30544;42.196;24.336;2023-04-03T08:11:12;98513.19;;;17.36;nan
26376;BME280;30544;42.196;24.336;2023-04-03T08:13:39;98512.31;;;17.68;nan
26376;BME280;30544;42.196;24.336;2023-04-03T08:16:10;98510.47;;;17.45;nan
26376;BME280;30544;42.196;24.336;2023-04-03T08:18:37;98507.16;;;17.43;nan
26376;BME280;30544;42.196;24.336;2023-04-03T08:21:06;98508.63;;;17.54;nan
26376;BME280;30544;42.196;24.336;2023-04-03T08:23:33;98509.88;;;17.62;nan
26376;BME280;30544;42.196;24.336;2023-04-03T08:26:07;98496.09;;;17.79;nan
26376;BME280;30544;42.196;24.336;2023-04-03T08:28:34;98495.16;;;17.84;nan
26376;BME280;30544;42.196;24.336;2023-04-03T08:31:03;98495.81;;;17.81;nan
26376;BME280;30544;42.196;24.336;2023-04-03T08:33:33;98483.19;;;17.51;nan
26376;BME280;30544;42.196;24.336;2023-04-03T08:36:01;98483.13;;;17.69;nan
26376;BME280;30544;42.196;24.336;2023-04-03T08:38:28;98480.72;;;17.90;nan
26376;BME280;30544;42.196;24.336;2023-04-03T08:41:12;98474.97;;;17.95;nan
26376;BME280;30544;42.196;24.336;2023-04-03T08:43:51;98468.88;;;17.93;nan
26376;BME280;30544;42.196;24.336;2023-04-03T08:46:23;98464.69;;;18.04;nan
26376;BME280;30544;42.196;24.336;2023-04-03T08:48:53;98470.31;;;17.63;nan
26376;BME280;30544;42.196;24.336;2023-04-03T08:51:22;98467.53;;;17.77;nan
26376;BME280;30544;42.196;24.336;2023-04-03T08:53:55;98468.88;;;17.80;nan
26376;BME280;30544;42.196;24.336;2023-04-03T08:56:25;98464.59;;;17.96;nan
26376;BME280;30544;42.196;24.336;2023-04-03T08:58:56;98467.06;;;18.11;nan
26376;BME280;30544;42.196;24.336;2023-04-03T09:01:26;98462.06;;;18.22;nan
26376;BME280;30544;42.196;24.336;2023-04-03T09:03:54;98460.88;;;18.37;nan
26376;BME280;30544;42.196;24.336;2023-04-03T09:06:23;98456.09;;;18.37;nan
26376;BME280;30544;42.196;24.336;2023-04-03T09:09:00;98450.38;;;18.28;nan
26376;BME280;30544;42.196;24.336;2023-04-03T09:11:37;98450.16;;;18.39;nan
26376;BME280;30544;42.196;24.336;2023-04-03T09:14:15;98449.97;;;18.35;nan
26376;BME280;30544;42.196;24.336;2023-04-03T09:16:49;98447.34;;;18.39;nan
26376;BME280;30544;42.196;24.336;2023-04-03T09:19:25;98447.13;;;18.49;nan
26376;BME280;30544;42.196;24.336;2023-04-03T09:22:01;98444.16;;;18.31;nan
26376;BME280;30544;42.196;24.336;2023-04-03T09:24:31;98441.66;;;18.30;nan
26376;BME280;30544;42.196;24.336;2023-04-03T09:27:03;98442.06;;;18.37;nan
26376;BME280;30544;42.196;24.336;2023-04-03T09:29:36;98440.00;;;18.29;nan
26376;BME280;30544;42.196;24.336;2023-04-03T09:32:18;98432.50;;;18.38;nan
26376;BME280;30544;42.196;24.336;2023-04-03T09:34:46;98429.84;;;18.19;nan
26376;BME280;30544;42.196;24.336;2023-04-03T09:37:33;98424.44;;;18.23;nan
26376;BME280;30544;42.196;24.336;2023-04-03T09:40:05;98424.13;;;18.24;nan
26376;BME280;30544;42.196;24.336;2023-04-03T09:42:40;98429.88;;;18.06;nan
26376;BME280;30544;42.196;24.336;2023-04-03T09:45:22;98438.63;;;18.04;nan
26376;BME280;30544;42.196;24.336;2023-04-03T09:48:05;98441.44;;;18.04;nan
26376;BME280;30544;42.196;24.336;2023-04-03T09:50:33;98441.56;;;17.99;nan
26376;BME280;30544;42.196;24.336;2023-04-03T09:53:05;98430.84;;;18.01;nan
26376;BME280;30544;42.196;24.336;2023-04-03T09:55:41;98424.72;;;17.99;nan
26376;BME280;30544;42.196;24.336;2023-04-03T09:58:24;98425.16;;;17.79;nan
26376;BME280;30544;42.196;24.336;2023-04-03T10:00:55;98439.28;;;17.73;nan
26376;BME280;30544;42.196;24.336;2023-04-03T10:03:25;98437.84;;;17.76;nan
26376;BME280;30544;42.196;24.336;2023-04-03T10:05:53;98439.69;;;17.67;nan
26376;BME280;30544;42.196;24.336;2023-04-03T10:08:25;98450.78;;;17.58;nan
26376;BME280;30544;42.196;24.336;2023-04-03T10:11:08;98457.66;;;17.52;nan
26376;BME280;30544;42.196;24.336;2023-04-03T10:13:49;98452.88;;;17.53;nan
26376;BME280;30544;42.196;24.336;2023-04-03T10:16:18;98448.81;;;17.45;nan
26376;BME280;30544;42.196;24.336;2023-04-03T10:18:49;98441.78;;;17.34;nan
26376;BME280;30544;42.196;24.336;2023-04-03T10:21:28;98440.31;;;17.36;nan
26376;BME280;30544;42.196;24.336;2023-04-03T10:24:03;98448.84;;;17.31;nan
26376;BME280;30544;42.196;24.336;2023-04-03T10:26:39;98451.84;;;17.35;nan
26376;BME280;30544;42.196;24.336;2023-04-03T10:29:20;98448.78;;;17.04;nan
26376;BME280;30544;42.196;24.336;2023-04-03T10:31:53;98455.50;;;16.89;nan
26376;BME280;30544;42.196;24.336;2023-04-03T10:34:25;98458.13;;;16.99;nan
26376;BME280;30544;42.196;24.336;2023-04-03T10:37:00;98467.56;;;17.03;nan
26376;BME280;30544;42.196;24.336;2023-04-03T10:39:36;98450.34;;;17.10;nan
26376;BME280;30544;42.196;24.336;2023-04-03T10:42:12;98460.81;;;17.04;nan
26376;BME280;30544;42.196;24.336;2023-04-03T10:44:58;98450.84;;;17.12;nan
26376;BME280;30544;42.196;24.336;2023-04-03T10:47:32;98436.75;;;17.03;nan
26376;BME280;30544;42.196;24.336;2023-04-03T10:50:10;98438.22;;;17.14;nan
26376;BME280;30544;42.196;24.336;2023-04-03T10:52:47;98446.19;;;17.07;nan
26376;BME280;30544;42.196;24.336;2023-04-03T10:55:26;98444.84;;;17.05;nan
26376;BME280;30544;42.196;24.336;2023-04-03T10:57:56;98454.88;;;16.92;nan
26376;BME280;30544;42.196;24.336;2023-04-03T11:00:33;98447.75;;;17.00;nan
26376;BME280;30544;42.196;24.336;2023-04-03T11:03:05;98460.47;;;16.92;nan
26376;BME280;30544;42.196;24.336;2023-04-03T11:05:37;98469.00;;;17.01;nan
26376;BME280;30544;42.196;24.336;2023-04-03T11:08:12;98465.28;;;16.73;nan
26376;BME280;30544;42.196;24.336;2023-04-03T11:10:42;98474.47;;;16.92;nan
26376;BME280;30544;42.196;24.336;2023-04-03T11:13:13;98478.63;;;16.95;nan
26376;BME280;30544;42.196;24.336;2023-04-03T11:15:42;98476.53;;;16.87;nan
26376;BME280;30544;42.196;24.336;2023-04-03T11:18:15;98476.19;;;16.74;nan
26376;BME280;30544;42.196;24.336;2023-04-03T11:20:49;98470.72;;;16.83;nan
26376;BME280;30544;42.196;24.336;2023-04-03T11:23:21;98465.75;;;16.80;nan
26376;BME280;30544;42.196;24.336;2023-04-03T11:25:51;98466.78;;;16.84;nan
26376;BME280;30544;42.196;24.336;2023-04-03T11:28:19;98464.88;;;16.79;nan
26376;BME280;30544;42.196;24.336;2023-04-03T11:30:50;98463.47;;;16.82;nan
26376;BME280;30544;42.196;24.336;2023-04-03T11:33:28;98463.31;;;16.73;nan
26376;BME280;30544;42.196;24.336;2023-04-03T11:36:02;98466.75;;;16.70;nan
26376;BME280;30544;42.196;24.336;2023-04-03T11:38:34;98462.19;;;16.55;nan
26376;BME280;30544;42.196;24.336;2023-04-03T11:41:06;98463.66;;;16.34;nan
26376;BME280;30544;42.196;24.336;2023-04-03T11:43:40;98460.19;;;16.05;nan
26376;BME280;30544;42.196;24.336;2023-04-03T11:46:09;98454.88;;;16.22;nan
26376;BME280;30544;42.196;24.336;2023-04-03T11:48:49;98449.44;;;16.12;nan
26376;BME280;30544;42.196;24.336;2023-04-03T11:51:42;98451.56;;;16.01;nan
26376;BME280;30544;42.196;24.336;2023-04-03T11:57:43;98449.97;;;15.95;nan
26376;BME280;30544;42.196;24.336;2023-04-03T12:12:35;98430.31;;;15.57;nan
26376;BME280;30544;42.196;24.336;2023-04-03T12:18:39;98418.03;;;15.11;nan
26376;BME280;30544;42.196;24.336;2023-04-03T12:21:07;98417.47;;;15.14;nan
26376;BME280;30544;42.196;24.336;2023-04-03T12:23:35;98418.38;;;15.04;nan
26376;BME280;30544;42.196;24.336;2023-04-03T12:26:20;98404.53;;;14.94;nan
26376;BME280;30544;42.196;24.336;2023-04-03T12:28:50;98399.00;;;14.89;nan
26376;BME280;30544;42.196;24.336;2023-04-03T12:31:19;98402.31;;;14.96;nan
26376;BME280;30544;42.196;24.336;2023-04-03T12:34:04;98390.00;;;14.97;nan
26376;BME280;30544;42.196;24.336;2023-04-03T12:36:37;98387.03;;;14.59;nan
26376;BME280;30544;42.196;24.336;2023-04-03T12:39:12;98390.31;;;14.66;nan
26376;BME280;30544;42.196;24.336;2023-04-03T12:41:46;98389.63;;;14.51;nan
26376;BME280;30544;42.196;24.336;2023-04-03T12:44:42;98403.75;;;14.59;nan
26376;BME280;30544;42.196;24.336;2023-04-03T12:47:31;98391.16;;;14.67;nan
26376;BME280;30544;42.196;24.336;2023-04-03T12:50:02;98389.97;;;14.73;nan
26376;BME280;30544;42.196;24.336;2023-04-03T12:52:35;98384.78;;;14.61;nan
26376;BME280;30544;42.196;24.336;2023-04-03T12:55:08;98382.47;;;14.68;nan
26376;BME280;30544;42.196;24.336;2023-04-03T12:57:35;98377.09;;;14.48;nan
26376;BME280;30544;42.196;24.336;2023-04-03T13:00:30;98382.13;;;14.75;nan
26376;BME280;30544;42.196;24.336;2023-04-03T13:02:58;98373.56;;;14.95;nan
26376;BME280;30544;42.196;24.336;2023-04-03T13:05:25;98370.44;;;14.73;nan
26376;BME280;30544;42.196;24.336;2023-04-03T13:07:56;98368.53;;;14.68;nan
26376;BME280;30544;42.196;24.336;2023-04-03T13:10:24;98370.75;;;14.37;nan
26376;BME280;30544;42.196;24.336;2023-04-03T13:12:53;98371.81;;;14.41;nan
26376;BME280;30544;42.196;24.336;2023-04-03T13:15:22;98368.63;;;14.58;nan
26376;BME280;30544;42.196;24.336;2023-04-03T13:17:52;98359.56;;;14.71;nan
26376;BME280;30544;42.196;24.336;2023-04-03T13:20:23;98361.19;;;14.49;nan
26376;BME280;30544;42.196;24.336;2023-04-03T13:22:54;98340.84;;;14.43;nan
26376;BME280;30544;42.196;24.336;2023-04-03T13:25:25;98352.47;;;14.55;nan
26376;BME280;30544;42.196;24.336;2023-04-03T13:27:53;98356.31;;;14.59;nan
26376;BME280;30544;42.196;24.336;2023-04-03T13:30:24;98345.97;;;14.02;nan
26376;BME280;30544;42.196;24.336;2023-04-03T13:32:55;98346.66;;;14.18;nan
26376;BME280;30544;42.196;24.336;2023-04-03T13:35:35;98349.63;;;13.97;nan
26376;BME280;30544;42.196;24.336;2023-04-03T13:38:06;98346.44;;;13.75;nan
26376;BME280;30544;42.196;24.336;2023-04-03T13:40:33;98342.59;;;13.66;nan
26376;BME280;30544;42.196;24.336;2023-04-03T13:43:18;98338.69;;;13.67;nan
26376;BME280;30544;42.196;24.336;2023-04-03T13:45:54;98325.63;;;13.62;nan